LiveATC.Net - Listen to live air traffic control over the Internet!


ICAO: KFLG  IATA: FLG   Airport: Flagstaff Pulliam Airport
City: Flagstaff   State/Province: Arizona
Country: United States   Continent: North America
KFLG METAR Weather: KFLG 200057Z 26006KT 4SM RA BR FEW013 BKN020 OVC029 03/02 A2984 RMK AO2 PK WND 23030/0004 SLP061 P0008 T00330017
KFLG Flight Activity (FlightAware)
KFLG Airport Info   (iFlightPlanner)
KFLG VFR Sectional Chart   (iFlightPlanner) 
KFLG IFR Low Chart   (iFlightPlanner) 

KFLG Ground/Tower
Feed Status: UP   Listeners: 0
Listen in your browser - HTML5 player (in browser, HTML5)
Click here to listen with your own player (launches your MP3 player)
KFLG Ground/Tower Audio Archives
FacilityFrequency
Flagstaff Ground121.900
Flagstaff Tower134.550

NOTICE

Unauthorized use prohibited. See LiveATC.net Terms of Service


Find LiveATC Audio Streams


Airport/ARTCC Code

Frequency Search
(e.g., 124.400, 128.75)
Site-wide search
 


Browse LiveATC Feeds
Top 50 LiveATC Feeds
LiveATC Feed Map
Bad Weather Areas

LiveATC FAQ
Offer LiveATC feed
Contact LiveATC.net
Press Inquiries

LiveATC on iPhone
LiveATC on Android

Windows Phone
Windows 8/10

LiveATC Mobile
(Mobile browser)

ATC Audio Archives
Interesting Recordings

LiveATC Forums


Home Page
About LiveATC.net
Make a Donation
Terms of Use
Privacy Policy

Canadian Air Freqs

AIRMETs/SIGMETs

FAA Airport Status
Nat'l Airspace Status
Arrival Demand Charts


Server Software By:
Icecast.org
Liquidsoap